createdAt,value
2022-10-21T00:01:50.773Z,22.55
2022-10-21T00:04:17.319Z,22.36
2022-10-21T00:06:43.853Z,22.85
2022-10-21T00:09:10.480Z,22.54
2022-10-21T00:11:37.110Z,22.42
2022-10-21T00:14:03.982Z,23.25
2022-10-21T00:16:30.494Z,22.60
2022-10-21T00:18:57.081Z,22.21
2022-10-21T00:21:23.750Z,22.64
2022-10-21T00:23:50.404Z,22.50
2022-10-21T00:26:18.402Z,22.54
2022-10-21T00:28:45.463Z,23.26
2022-10-21T00:31:14.283Z,23.82
2022-10-21T00:33:42.289Z,23.88
2022-10-21T00:36:14.718Z,23.62
2022-10-21T00:38:44.310Z,23.61
2022-10-21T00:41:11.252Z,23.76
2022-10-21T00:43:59.106Z,23.79
2022-10-21T00:47:00.965Z,23.94
2022-10-21T00:49:59.953Z,23.85
2022-10-21T00:52:29.821Z,23.82
2022-10-21T00:54:58.056Z,23.79
2022-10-21T00:57:26.822Z,23.87
2022-10-21T01:00:00.876Z,23.77
2022-10-21T01:03:29.267Z,23.52
2022-10-21T01:05:58.448Z,23.78
2022-10-21T01:08:25.742Z,23.98
2022-10-21T01:10:53.165Z,24.12
2022-10-21T01:16:42.088Z,23.82
2022-10-21T01:19:32.316Z,23.77
2022-10-21T01:22:27.854Z,23.39
2022-10-21T01:25:32.993Z,22.87
2022-10-21T01:28:28.987Z,22.89
2022-10-21T01:31:01.031Z,23.56
2022-10-21T01:33:40.604Z,23.91
2022-10-21T01:36:47.834Z,23.93
2022-10-21T01:39:23.482Z,23.79
2022-10-21T01:41:56.004Z,23.55
2022-10-21T01:44:27.566Z,23.79
2022-10-21T01:46:57.037Z,23.89
2022-10-21T01:49:50.267Z,23.63
2022-10-21T01:52:17.383Z,24.12
2022-10-21T01:54:48.114Z,24.70
2022-10-21T01:57:18.220Z,25.36
2022-10-21T01:59:46.430Z,25.43
2022-10-21T02:02:16.147Z,25.26
2022-10-21T02:04:45.389Z,25.10
2022-10-21T02:07:12.015Z,25.17
2022-10-21T02:09:38.794Z,25.03
2022-10-21T02:12:06.401Z,24.66
2022-10-21T02:14:36.969Z,24.99
2022-10-21T02:17:04.856Z,24.79
2022-10-21T02:19:32.668Z,24.21
2022-10-21T02:22:04.245Z,24.62
2022-10-21T02:24:37.273Z,24.48
2022-10-21T02:27:04.293Z,25.01
2022-10-21T02:29:38.253Z,25.25
2022-10-21T02:32:28.467Z,25.16
2022-10-21T02:35:13.829Z,24.45
2022-10-21T02:37:58.365Z,24.47
2022-10-21T02:40:42.478Z,23.65
2022-10-21T02:43:31.968Z,24.06
2022-10-21T02:46:17.278Z,24.01
2022-10-21T02:48:46.614Z,24.34
2022-10-21T02:51:14.469Z,24.59
2022-10-21T02:53:41.881Z,24.98
2022-10-21T02:56:09.208Z,24.87
2022-10-21T02:58:36.304Z,24.65
2022-10-21T03:01:03.088Z,24.10
2022-10-21T03:03:29.898Z,24.05
2022-10-21T03:05:57.528Z,23.68
2022-10-21T03:08:24.251Z,23.82
2022-10-21T03:10:53.201Z,23.81
2022-10-21T03:13:21.875Z,23.21
2022-10-21T03:15:49.426Z,22.86
2022-10-21T03:18:16.465Z,23.05
2022-10-21T03:20:43.095Z,23.14
2022-10-21T03:23:10.186Z,23.28
2022-10-21T03:25:36.714Z,23.23
2022-10-21T03:28:03.273Z,23.68
2022-10-21T03:30:29.804Z,23.47
2022-10-21T03:32:56.317Z,23.49
2022-10-21T03:35:22.941Z,22.96
2022-10-21T03:37:49.465Z,23.38
2022-10-21T03:40:16.094Z,23.46
2022-10-21T03:42:42.661Z,23.47
2022-10-21T03:45:09.801Z,23.76
2022-10-21T03:47:36.875Z,23.61
2022-10-21T03:50:06.383Z,23.51
2022-10-21T03:52:35.620Z,23.28
2022-10-21T03:55:02.341Z,23.28
2022-10-21T03:57:28.872Z,23.40
2022-10-21T03:59:55.589Z,23.35
2022-10-21T04:02:22.155Z,23.22
2022-10-21T04:04:48.941Z,23.13
2022-10-21T04:07:15.471Z,23.18
2022-10-21T04:09:42.394Z,23.66
2022-10-21T04:12:08.920Z,23.49
2022-10-21T04:14:35.584Z,23.54
2022-10-21T04:17:07.487Z,23.02
2022-10-21T04:19:34.933Z,22.86
2022-10-21T04:22:01.786Z,22.75
2022-10-21T04:24:28.417Z,23.46
2022-10-21T04:26:54.974Z,23.29
2022-10-21T04:29:21.606Z,23.18
2022-10-21T04:31:48.177Z,23.27
2022-10-21T04:34:14.922Z,23.22
2022-10-21T04:36:41.466Z,23.38
2022-10-21T04:39:08.029Z,22.77
2022-10-21T04:41:34.657Z,23.05
2022-10-21T04:44:01.996Z,22.89
2022-10-21T04:46:28.625Z,23.73
2022-10-21T04:48:55.158Z,23.69
2022-10-21T04:51:22.113Z,23.94
2022-10-21T04:53:48.695Z,24.35
2022-10-21T04:56:15.311Z,24.00
2022-10-21T04:58:42.239Z,23.90
2022-10-21T05:01:08.957Z,24.09
2022-10-21T05:03:35.595Z,24.69
2022-10-21T05:06:02.393Z,24.11
2022-10-21T05:08:29.484Z,24.66
2022-10-21T05:11:00.691Z,24.90
2022-10-21T05:13:28.670Z,25.23
2022-10-21T05:16:03.251Z,25.44
2022-10-21T05:18:30.980Z,25.61
2022-10-21T05:20:58.832Z,25.77
2022-10-21T05:23:26.828Z,26.41
2022-10-21T05:25:53.680Z,26.10
2022-10-21T05:28:21.354Z,25.47
2022-10-21T05:30:48.402Z,25.03
2022-10-21T05:33:15.324Z,25.44
2022-10-21T05:35:42.333Z,25.68
2022-10-21T05:38:08.855Z,25.34
2022-10-21T05:40:35.519Z,25.37
2022-10-21T05:43:02.065Z,25.90
2022-10-21T05:45:28.695Z,26.39
2022-10-21T05:47:55.290Z,26.23
2022-10-21T05:50:21.933Z,26.24
2022-10-21T05:52:48.719Z,25.67
2022-10-21T05:55:15.501Z,25.38
2022-10-21T05:57:42.401Z,25.78
2022-10-21T06:00:09.960Z,26.07
2022-10-21T06:02:37.336Z,26.32
2022-10-21T06:05:04.401Z,26.31
2022-10-21T06:07:31.170Z,26.52
2022-10-21T06:09:57.739Z,26.79
2022-10-21T06:12:25.522Z,26.91
2022-10-21T06:14:52.204Z,26.84
2022-10-21T06:17:18.861Z,26.85
2022-10-21T06:19:48.675Z,26.64
2022-10-21T06:22:17.503Z,26.49
2022-10-21T06:24:44.252Z,25.79
2022-10-21T06:27:10.814Z,25.72
2022-10-21T06:29:37.485Z,25.34
2022-10-21T06:32:04.218Z,25.31
2022-10-21T06:34:31.088Z,25.35
2022-10-21T06:36:57.760Z,25.26
2022-10-21T06:39:24.436Z,25.20
2022-10-21T06:41:50.993Z,25.73
2022-10-21T06:44:37.756Z,25.23
2022-10-21T06:47:04.705Z,25.58
2022-10-21T06:49:31.370Z,24.95
2022-10-21T06:51:57.970Z,24.50
2022-10-21T06:54:24.632Z,24.99
2022-10-21T06:56:51.179Z,24.87
2022-10-21T06:59:17.777Z,24.96
2022-10-21T07:02:00.880Z,24.93
2022-10-21T07:04:28.847Z,24.82
2022-10-21T07:06:55.469Z,24.01
2022-10-21T07:09:22.032Z,24.16
2022-10-21T07:11:48.687Z,24.15
2022-10-21T07:14:15.210Z,24.85
2022-10-21T07:16:42.156Z,24.68
2022-10-21T07:19:10.171Z,23.87
2022-10-21T07:21:36.685Z,23.96
2022-10-21T07:24:03.807Z,23.79
2022-10-21T07:26:32.515Z,24.03
2022-10-21T07:29:01.120Z,23.75
2022-10-21T07:31:31.343Z,24.25
2022-10-21T07:33:59.969Z,24.37
2022-10-21T07:36:29.503Z,24.84
2022-10-21T07:38:59.189Z,25.01
2022-10-21T07:41:29.705Z,25.16
2022-10-21T07:43:57.195Z,24.59
2022-10-21T07:46:24.579Z,25.60
2022-10-21T07:48:51.843Z,25.63
2022-10-21T07:51:23.667Z,26.51
2022-10-21T07:53:54.622Z,26.21
2022-10-21T07:56:27.217Z,26.37
2022-10-21T07:58:55.113Z,26.67
2022-10-21T08:01:21.854Z,26.72
2022-10-21T08:03:49.041Z,27.13
2022-10-21T08:06:17.363Z,26.80
2022-10-21T08:08:45.107Z,27.73
2022-10-21T08:11:19.731Z,27.87
2022-10-21T08:13:46.239Z,27.80
2022-10-21T08:16:12.772Z,27.99
2022-10-21T08:18:39.785Z,28.01
2022-10-21T08:21:06.680Z,27.52
2022-10-21T08:23:33.192Z,27.66
2022-10-21T08:26:01.180Z,27.76
2022-10-21T08:28:30.077Z,27.14
2022-10-21T08:31:08.556Z,27.68
2022-10-21T08:33:36.165Z,27.40
2022-10-21T08:36:11.639Z,27.66
2022-10-21T08:38:38.255Z,26.64
2022-10-21T08:41:31.258Z,27.45
2022-10-21T08:44:04.886Z,27.31
2022-10-21T08:46:51.549Z,27.52
2022-10-21T08:49:26.258Z,27.73
2022-10-21T08:52:18.694Z,27.61
2022-10-21T08:54:56.681Z,27.67
2022-10-21T08:57:23.257Z,28.00
2022-10-21T08:59:49.896Z,28.79
2022-10-21T09:02:41.537Z,28.77
2022-10-21T09:05:45.616Z,28.22
2022-10-21T09:08:29.196Z,28.59
2022-10-21T09:11:22.091Z,28.67
2022-10-21T09:14:09.516Z,28.47
2022-10-21T09:17:13.297Z,28.77
2022-10-21T09:20:00.099Z,28.88
2022-10-21T09:22:54.722Z,28.21
2022-10-21T09:25:34.779Z,28.23
2022-10-21T09:28:11.089Z,28.61
2022-10-21T09:30:39.184Z,28.67
2022-10-21T09:33:15.563Z,28.77
2022-10-21T09:35:53.789Z,29.03
2022-10-21T09:38:23.046Z,29.54
2022-10-21T09:40:59.000Z,28.77
2022-10-21T09:43:27.212Z,29.23
2022-10-21T09:45:54.580Z,29.27
2022-10-21T09:48:50.195Z,29.22
2022-10-21T09:51:32.333Z,29.11
2022-10-21T09:54:04.973Z,29.75
2022-10-21T09:56:39.778Z,29.94
2022-10-21T09:59:09.724Z,30.46
2022-10-21T10:01:38.370Z,30.68
2022-10-21T10:04:26.557Z,30.89
2022-10-21T10:06:53.146Z,31.23
2022-10-21T10:09:28.895Z,31.12
2022-10-21T10:12:05.711Z,31.07
2022-10-21T10:14:35.515Z,31.09
2022-10-21T10:17:23.987Z,31.27
2022-10-21T10:20:07.058Z,30.46
2022-10-21T10:22:37.635Z,30.73
2022-10-21T10:25:24.262Z,31.17
2022-10-21T10:27:52.503Z,30.69
2022-10-21T10:30:20.245Z,30.93
2022-10-21T10:32:49.431Z,30.38
2022-10-21T10:35:35.811Z,30.29
2022-10-21T10:38:03.541Z,30.74
2022-10-21T10:40:34.157Z,29.83
2022-10-21T10:43:12.023Z,29.68
2022-10-21T10:45:46.164Z,30.11
2022-10-21T10:53:42.440Z,29.66
2022-10-21T10:56:25.083Z,30.43
2022-10-21T10:58:57.704Z,30.62
2022-10-21T11:01:31.450Z,30.39
2022-10-21T11:04:06.192Z,30.35
2022-10-21T11:06:44.386Z,30.11
2022-10-21T11:09:10.987Z,29.95
2022-10-21T11:11:44.938Z,30.31
2022-10-21T11:14:17.595Z,30.41
2022-10-21T11:17:09.102Z,30.87
2022-10-21T11:19:35.611Z,31.28
2022-10-21T11:22:23.057Z,30.63
2022-10-21T11:25:11.293Z,30.53
2022-10-21T11:27:56.733Z,30.66
2022-10-21T11:30:33.842Z,30.37
2022-10-21T11:33:18.502Z,31.20
2022-10-21T11:36:12.953Z,31.77
2022-10-21T11:39:21.754Z,31.78
2022-10-21T11:42:16.783Z,31.41
2022-10-21T11:45:01.423Z,31.63
2022-10-21T11:47:42.992Z,31.58
2022-10-21T11:53:24.249Z,30.56
2022-10-21T11:56:04.770Z,30.95
2022-10-21T11:59:10.983Z,31.07
2022-10-21T12:01:50.887Z,31.37
2022-10-21T12:05:03.387Z,31.59
2022-10-21T12:07:53.994Z,30.83
2022-10-21T12:10:51.394Z,30.77
2022-10-21T12:13:44.633Z,30.97
2022-10-21T12:16:16.571Z,30.39
2022-10-21T12:19:03.194Z,30.85
2022-10-21T12:21:33.970Z,31.08
2022-10-21T12:24:21.889Z,30.33
2022-10-21T12:26:59.389Z,31.22
2022-10-21T12:29:56.611Z,30.75
2022-10-21T12:32:41.260Z,30.63
2022-10-21T12:35:30.421Z,30.33
2022-10-21T12:37:57.039Z,30.56
2022-10-21T12:40:26.956Z,30.96
2022-10-21T12:43:00.465Z,30.70
2022-10-21T12:45:38.125Z,30.54
2022-10-21T12:48:32.099Z,30.01
2022-10-21T12:51:06.018Z,30.38
2022-10-21T12:53:42.478Z,30.58
2022-10-21T12:56:10.756Z,30.41
2022-10-21T12:58:47.059Z,30.71
2022-10-21T13:01:39.631Z,30.68
2022-10-21T13:04:32.435Z,31.06
2022-10-21T13:07:04.342Z,31.08
2022-10-21T13:09:42.765Z,31.33
2022-10-21T13:12:09.273Z,31.20
2022-10-21T13:14:44.350Z,30.85
2022-10-21T13:17:48.966Z,30.74
2022-10-21T13:20:15.455Z,30.50
2022-10-21T13:22:45.368Z,31.16
2022-10-21T13:25:28.280Z,31.57
2022-10-21T13:28:04.950Z,31.50
2022-10-21T13:30:35.259Z,31.33
2022-10-21T13:33:07.429Z,32.07
2022-10-21T13:35:49.220Z,31.55
2022-10-21T13:38:27.134Z,31.95
2022-10-21T13:41:00.110Z,32.42
2022-10-21T13:43:29.681Z,32.25
2022-10-21T13:46:06.698Z,32.15
2022-10-21T13:48:42.089Z,32.41
2022-10-21T13:51:22.420Z,31.74
2022-10-21T13:53:52.870Z,32.28
2022-10-21T13:56:25.524Z,32.31
2022-10-21T13:58:52.788Z,31.88
2022-10-21T14:01:28.858Z,32.49
2022-10-21T14:04:12.232Z,31.98
2022-10-21T14:06:45.148Z,31.86
2022-10-21T14:09:22.375Z,31.04
2022-10-21T14:11:53.557Z,31.66
2022-10-21T14:14:24.452Z,32.00
2022-10-21T14:17:03.126Z,31.88
2022-10-21T14:19:34.394Z,32.18
2022-10-21T14:22:01.892Z,32.24
2022-10-21T14:24:38.946Z,31.67
2022-10-21T14:27:06.963Z,31.95
2022-10-21T14:29:35.929Z,31.45
2022-10-21T14:32:04.299Z,31.35
2022-10-21T14:34:34.521Z,32.02
2022-10-21T14:37:09.391Z,31.63
2022-10-21T14:39:39.604Z,31.81
2022-10-21T14:42:18.914Z,31.90
2022-10-21T14:44:47.686Z,31.57
2022-10-21T14:47:32.497Z,31.60
2022-10-21T14:49:59.804Z,31.77
2022-10-21T14:52:36.458Z,31.15
2022-10-21T14:55:08.948Z,30.22
2022-10-21T14:57:42.716Z,30.15
2022-10-21T15:00:28.932Z,30.26
2022-10-21T15:02:59.016Z,30.00
2022-10-21T15:05:36.675Z,30.27
2022-10-21T15:08:21.671Z,30.33
2022-10-21T15:10:57.035Z,30.56
2022-10-21T15:13:25.837Z,30.70
2022-10-21T15:15:55.340Z,31.07
2022-10-21T15:18:27.402Z,31.32
2022-10-21T15:21:00.105Z,31.25
2022-10-21T15:23:32.740Z,30.98
2022-10-21T15:26:03.683Z,30.24
2022-10-21T15:28:34.466Z,30.45
2022-10-21T15:31:02.722Z,30.45
2022-10-21T15:33:30.514Z,30.66
2022-10-21T15:36:05.357Z,30.73
2022-10-21T15:38:32.026Z,31.20
2022-10-21T15:40:58.633Z,31.38
2022-10-21T15:43:25.243Z,31.46
2022-10-21T15:45:51.845Z,31.43
2022-10-21T15:48:18.381Z,31.74
2022-10-21T15:50:44.898Z,31.89
2022-10-21T15:53:11.684Z,31.87
2022-10-21T15:55:39.300Z,31.92
2022-10-21T15:58:06.501Z,31.29
2022-10-21T16:00:39.858Z,30.83
2022-10-21T16:03:08.327Z,30.30
2022-10-21T16:05:35.116Z,30.53
2022-10-21T16:08:01.698Z,30.42
2022-10-21T16:10:32.786Z,30.57
2022-10-21T16:12:59.463Z,30.49
2022-10-21T16:15:26.764Z,29.64
2022-10-21T16:17:56.596Z,29.87
2022-10-21T16:20:24.565Z,29.65
2022-10-21T16:22:51.956Z,30.09
2022-10-21T16:25:19.173Z,30.44
2022-10-21T16:27:55.616Z,29.97
2022-10-21T16:30:26.554Z,30.47
2022-10-21T16:32:53.242Z,30.40
2022-10-21T16:35:21.254Z,29.99
2022-10-21T16:37:49.325Z,30.13
2022-10-21T16:40:22.266Z,30.32
2022-10-21T16:42:50.579Z,30.51
2022-10-21T16:45:18.810Z,30.74
2022-10-21T16:47:51.101Z,30.91
2022-10-21T16:50:21.839Z,30.87
2022-10-21T16:52:49.303Z,31.10
2022-10-21T16:55:16.713Z,31.20
2022-10-21T16:57:43.590Z,31.20
2022-10-21T17:00:11.683Z,31.07
2022-10-21T17:02:40.430Z,31.08
2022-10-21T17:05:08.566Z,31.07
2022-10-21T17:07:35.218Z,31.12
2022-10-21T17:10:02.130Z,31.05
2022-10-21T17:12:31.402Z,31.05
2022-10-21T17:14:58.139Z,31.26
2022-10-21T17:17:24.992Z,31.25
2022-10-21T17:19:52.369Z,31.08
2022-10-21T17:22:19.638Z,31.35
2022-10-21T17:24:47.522Z,31.20
2022-10-21T17:27:18.733Z,31.25
2022-10-21T17:29:46.374Z,30.53
2022-10-21T17:32:13.314Z,30.83
2022-10-21T17:34:40.206Z,31.00
2022-10-21T17:37:07.962Z,30.99
2022-10-21T17:39:34.559Z,30.67
2022-10-21T17:42:01.174Z,30.50
2022-10-21T17:44:27.947Z,30.40
2022-10-21T17:46:54.723Z,30.49
2022-10-21T17:49:24.449Z,30.43
2022-10-21T17:51:51.511Z,30.37
2022-10-21T17:54:22.591Z,30.17
2022-10-21T17:56:52.824Z,29.98
2022-10-21T17:59:19.446Z,29.88
2022-10-21T18:01:46.728Z,29.22
2022-10-21T18:04:14.095Z,29.80
2022-10-21T18:06:41.036Z,29.53
2022-10-21T18:09:08.774Z,29.66
2022-10-21T18:11:36.757Z,29.67
2022-10-21T18:14:04.750Z,29.44
2022-10-21T18:16:31.738Z,29.98
2022-10-21T18:19:01.824Z,29.90
2022-10-21T18:21:30.222Z,29.76
2022-10-21T18:23:56.955Z,30.04
2022-10-21T18:26:26.776Z,30.13
2022-10-21T18:28:58.897Z,30.30
2022-10-21T18:31:30.848Z,30.49
2022-10-21T18:33:58.804Z,30.05
2022-10-21T18:36:25.772Z,30.16
2022-10-21T18:38:52.500Z,30.38
2022-10-21T18:41:21.401Z,30.46
2022-10-21T18:44:01.320Z,30.01
2022-10-21T18:46:29.083Z,30.31
2022-10-21T18:48:55.734Z,30.60
2022-10-21T18:51:23.804Z,30.37
2022-10-21T18:53:52.787Z,30.72
2022-10-21T18:56:21.295Z,30.60
2022-10-21T18:58:48.223Z,30.46
2022-10-21T19:01:15.660Z,30.22
2022-10-21T19:03:43.107Z,30.26
2022-10-21T19:06:32.965Z,30.22
2022-10-21T19:09:01.222Z,30.43
2022-10-21T19:11:28.739Z,30.37
2022-10-21T19:13:56.132Z,30.31
2022-10-21T19:16:23.098Z,30.23
2022-10-21T19:18:49.721Z,30.19
2022-10-21T19:21:20.727Z,30.31
2022-10-21T19:23:47.670Z,30.24
2022-10-21T19:26:14.677Z,30.31
2022-10-21T19:28:41.427Z,30.26
2022-10-21T19:31:08.743Z,30.19
2022-10-21T19:33:35.400Z,30.16
2022-10-21T19:36:04.962Z,30.00
2022-10-21T19:38:43.788Z,30.20
2022-10-21T19:41:15.922Z,30.26
2022-10-21T19:43:42.676Z,30.31
2022-10-21T19:46:10.864Z,30.31
2022-10-21T19:48:37.695Z,30.27
2022-10-21T19:51:04.787Z,30.13
2022-10-21T19:53:34.376Z,30.19
2022-10-21T19:56:05.479Z,30.30
2022-10-21T19:58:32.989Z,30.22
2022-10-21T20:01:04.613Z,30.23
2022-10-21T20:03:31.786Z,30.19
2022-10-21T20:05:58.377Z,30.20
2022-10-21T20:11:01.013Z,30.03
2022-10-21T20:13:28.789Z,30.00
2022-10-21T20:15:55.444Z,29.93
2022-10-21T20:18:24.867Z,29.84
2022-10-21T20:20:55.513Z,29.61
2022-10-21T20:23:23.437Z,29.42
2022-10-21T20:25:55.089Z,29.24
2022-10-21T20:28:22.294Z,29.09
2022-10-21T20:31:06.195Z,29.05
2022-10-21T20:33:35.923Z,28.84
2022-10-21T20:36:07.701Z,28.55
2022-10-21T20:38:34.699Z,28.69
2022-10-21T20:41:08.151Z,28.84
2022-10-21T20:43:35.752Z,28.63
2022-10-21T20:46:08.009Z,28.67
2022-10-21T20:48:35.441Z,28.76
2022-10-21T20:51:11.090Z,28.63
2022-10-21T20:53:40.119Z,28.74
2022-10-21T20:56:07.485Z,28.64
2022-10-21T20:58:39.167Z,28.27
2022-10-21T21:01:07.634Z,28.50
2022-10-21T21:03:34.503Z,28.72
2022-10-21T21:06:02.419Z,28.62
2022-10-21T21:08:28.995Z,28.64
2022-10-21T21:11:07.472Z,28.60
2022-10-21T21:13:34.298Z,28.08
2022-10-21T21:16:21.228Z,28.32
2022-10-21T21:18:53.866Z,28.14
2022-10-21T21:21:21.961Z,28.45
2022-10-21T21:23:49.161Z,28.73
2022-10-21T21:26:19.111Z,28.54
2022-10-21T21:28:46.748Z,28.67
2022-10-21T21:31:14.910Z,28.54
2022-10-21T21:33:42.450Z,28.62
2022-10-21T21:36:09.720Z,28.46
2022-10-21T21:38:36.322Z,28.66
2022-10-21T21:41:05.613Z,28.41
2022-10-21T21:43:36.662Z,28.38
2022-10-21T21:46:03.742Z,28.40
2022-10-21T21:48:33.675Z,28.56
2022-10-21T21:51:05.935Z,28.63
2022-10-21T21:53:32.968Z,28.72
2022-10-21T21:56:04.208Z,28.72
2022-10-21T21:58:31.063Z,28.91
2022-10-21T22:00:58.100Z,29.17
2022-10-21T22:03:24.672Z,29.14
2022-10-21T22:05:51.199Z,29.13
2022-10-21T22:08:17.747Z,29.03
2022-10-21T22:10:44.266Z,29.22
2022-10-21T22:13:12.660Z,29.25
2022-10-21T22:15:54.678Z,29.08
2022-10-21T22:18:21.663Z,28.79
2022-10-21T22:20:48.165Z,28.61
2022-10-21T22:23:14.770Z,28.80
2022-10-21T22:25:41.312Z,29.05
2022-10-21T22:28:07.828Z,29.40
2022-10-21T22:30:34.347Z,29.29
2022-10-21T22:33:00.891Z,29.32
2022-10-21T22:35:28.179Z,29.19
2022-10-21T22:37:54.706Z,29.40
2022-10-21T22:40:21.294Z,29.21
2022-10-21T22:42:47.823Z,29.09
2022-10-21T22:45:14.692Z,28.43
2022-10-21T22:47:41.530Z,28.14
2022-10-21T22:50:08.736Z,28.62
2022-10-21T22:52:35.256Z,29.06
2022-10-21T22:55:01.991Z,29.10
2022-10-21T22:57:28.529Z,28.90
2022-10-21T22:59:55.075Z,29.24
2022-10-21T23:02:21.723Z,29.55
2022-10-21T23:04:48.217Z,29.64
2022-10-21T23:07:14.991Z,29.80
2022-10-21T23:09:41.554Z,29.68
2022-10-21T23:12:08.583Z,29.65
2022-10-21T23:14:35.179Z,29.63
2022-10-21T23:17:01.718Z,29.86
2022-10-21T23:19:28.311Z,29.80
2022-10-21T23:21:55.018Z,29.93
2022-10-21T23:24:21.890Z,30.04
2022-10-21T23:26:48.447Z,29.99
2022-10-21T23:29:15.211Z,29.97
2022-10-21T23:31:42.160Z,29.88
2022-10-21T23:34:09.325Z,29.87
2022-10-21T23:36:36.610Z,29.74
2022-10-21T23:39:04.032Z,29.47
2022-10-21T23:41:30.624Z,29.23
2022-10-21T23:43:57.170Z,29.03
2022-10-21T23:46:23.943Z,29.24
2022-10-21T23:48:50.604Z,28.89
2022-10-21T23:51:17.182Z,28.54
2022-10-21T23:53:44.006Z,28.73
2022-10-21T23:56:10.579Z,28.86
2022-10-21T23:58:38.008Z,28.80
